Time;durP1;ratioP1;P1;durP2;ratioP2;P2;SDS_P1;SDS_P2;PMS_P1;PMS_P2;Temp;Humidity;BMP_temperature;BMP_pressure;BME280_temperature;BME280_humidity;BME280_pressure;Samples;Min_cycle;Max_cycle;Signal;HPM_P1;HPM_P2
2022/06/05 00:02:25;;;;;;;;;16.50;15.00;;;;;18.36;100.00;100544.78;4994015;28;45327;-70
2022/06/05 00:04:59;;;;;;;;;18.00;15.50;;;;;18.37;100.00;100553.66;4993894;28;45507;-69
2022/06/05 00:07:43;;;;;;;;;13.50;13.25;;;;;18.38;100.00;100542.03;4994431;28;45227;-69
2022/06/05 00:10:24;;;;;;;;;21.00;20.75;;;;;18.37;100.00;100541.16;4992349;27;45430;-72
2022/06/05 00:13:04;;;;;;;;;13.00;13.00;;;;;18.39;100.00;100546.41;4993388;28;45424;-70
2022/06/05 00:15:30;;;;;;;;;17.00;17.00;;;;;18.39;100.00;100546.41;4993269;28;45393;-71
2022/06/05 00:17:55;;;;;;;;;14.00;13.75;;;;;18.42;100.00;100547.97;4994241;28;45271;-72
2022/06/05 00:20:22;;;;;;;;;12.50;12.50;;;;;18.40;100.00;100548.09;4997514;27;45286;-70
2022/06/05 00:22:48;;;;;;;;;17.75;15.50;;;;;18.41;100.00;100544.47;4993892;28;45171;-71
2022/06/05 00:25:14;;;;;;;;;14.75;13.75;;;;;18.39;100.00;100549.06;4992787;27;45378;-71
2022/06/05 00:28:04;;;;;;;;;18.50;17.75;;;;;18.36;100.00;100542.13;4993751;28;45425;-71
2022/06/05 00:30:41;;;;;;;;;20.00;19.75;;;;;18.31;100.00;100533.63;4993766;28;45415;-70
2022/06/05 00:33:16;;;;;;;;;18.75;17.25;;;;;18.32;100.00;100530.00;4993955;28;45367;-70
2022/06/05 00:35:57;;;;;;;;;21.00;19.00;;;;;18.32;100.00;100539.81;4993116;27;46402;-72
2022/06/05 00:38:38;;;;;;;;;18.75;18.50;;;;;18.31;100.00;100532.78;4993341;28;45453;-72
2022/06/05 00:41:09;;;;;;;;;17.25;16.75;;;;;18.30;100.00;100529.28;4995393;28;45385;-71
2022/06/05 00:43:36;;;;;;;;;16.00;16.00;;;;;18.28;100.00;100530.34;4995476;27;45472;-73
2022/06/05 00:46:02;;;;;;;;;22.00;18.75;;;;;18.28;100.00;100528.53;4993287;28;45466;-73
2022/06/05 00:48:28;;;;;;;;;15.50;14.00;;;;;18.25;100.00;100516.31;4993577;28;45257;-71
2022/06/05 00:50:53;;;;;;;;;18.25;17.00;;;;;18.27;100.00;100505.53;4992502;28;45428;-70
2022/06/05 00:53:18;;;;;;;;;17.50;16.25;;;;;18.27;100.00;100499.38;4993236;27;45228;-71
2022/06/05 00:55:49;;;;;;;;;15.75;14.75;;;;;18.24;100.00;100503.97;4993763;28;45324;-69
2022/06/05 00:58:16;;;;;;;;;25.50;25.50;;;;;18.29;100.00;100505.44;4992397;28;45337;-70
2022/06/05 01:00:46;;;;;;;;;20.50;18.75;;;;;18.25;100.00;100511.00;4991201;28;45323;-70
2022/06/05 01:03:13;;;;;;;;;19.75;18.00;;;;;18.29;100.00;100524.91;4995284;28;45423;-71
2022/06/05 01:05:39;;;;;;;;;14.25;14.25;;;;;18.29;100.00;100524.06;4994137;27;46208;-71
2022/06/05 01:08:06;;;;;;;;;23.75;21.00;;;;;18.30;100.00;100521.28;4992552;27;45363;-72
2022/06/05 01:10:43;;;;;;;;;22.75;21.00;;;;;18.30;100.00;100517.78;4992698;28;45242;-73
2022/06/05 01:13:23;;;;;;;;;19.50;19.50;;;;;18.30;100.00;100518.63;4994453;27;45350;-70
2022/06/05 01:16:01;;;;;;;;;22.00;20.75;;;;;18.30;100.00;100507.13;4992709;28;45362;-70
2022/06/05 01:18:49;;;;;;;;;20.25;19.25;;;;;18.29;100.00;100505.44;4991115;28;46421;-69
2022/06/05 01:21:33;;;;;;;;;21.25;19.25;;;;;18.29;100.00;100497.44;4992510;28;45316;-70
2022/06/05 01:24:12;;;;;;;;;21.50;19.50;;;;;18.28;100.00;100477.94;4992900;27;45534;-71
2022/06/05 01:26:42;;;;;;;;;23.00;20.75;;;;;18.30;100.00;100476.03;4992356;28;46403;-71
2022/06/05 01:29:09;;;;;;;;;18.25;18.25;;;;;18.29;100.00;100466.34;4994659;28;45330;-70
2022/06/05 01:32:09;;;;;;;;;19.75;18.50;;;;;18.31;100.00;100463.56;4993597;28;45374;-71
2022/06/05 01:34:51;;;;;;;;;23.00;21.25;;;;;18.32;100.00;100462.59;4962387;28;45500;-73
2022/06/05 01:37:34;;;;;;;;;21.00;21.00;;;;;18.30;100.00;100448.56;4992524;28;46295;-70
2022/06/05 01:40:13;;;;;;;;;18.25;18.25;;;;;18.30;100.00;100440.56;4994612;28;45372;-73
2022/06/05 01:42:44;;;;;;;;;19.00;18.25;;;;;18.19;100.00;100420.94;4996294;28;45331;-70
2022/06/05 01:45:25;;;;;;;;;17.50;17.00;;;;;18.25;100.00;100427.59;4995327;28;45387;-69
2022/06/05 01:47:54;;;;;;;;;19.25;18.00;;;;;18.29;100.00;100433.56;4994511;28;45279;-71
2022/06/05 01:50:27;;;;;;;;;17.50;16.00;;;;;18.28;100.00;100419.38;4993445;28;45359;-73
2022/06/05 01:53:10;;;;;;;;;15.00;13.75;;;;;18.29;100.00;100420.25;4994362;28;45531;-72
2022/06/05 01:55:56;;;;;;;;;14.25;13.25;;;;;18.28;100.00;100414.03;4996499;28;45254;-71
2022/06/05 01:58:33;;;;;;;;;15.75;14.00;;;;;18.31;100.00;100399.66;4995695;28;45362;-70
2022/06/05 02:01:06;;;;;;;;;18.25;15.00;;;;;18.32;100.00;100409.34;4995754;28;45567;-71
2022/06/05 02:03:39;;;;;;;;;17.00;17.00;;;;;18.29;100.00;100404.25;4995844;28;45393;-74
2022/06/05 02:06:11;;;;;;;;;16.75;16.75;;;;;18.30;100.00;100396.16;4997067;28;45311;-71
2022/06/05 02:08:48;;;;;;;;;22.50;20.50;;;;;18.27;100.00;100390.22;4995344;28;45485;-70
2022/06/05 02:11:20;;;;;;;;;16.00;16.00;;;;;18.31;100.00;100394.34;4994988;28;45379;-69
2022/06/05 02:13:46;;;;;;;;;20.50;20.50;;;;;18.30;100.00;100392.66;4996287;28;45396;-70
2022/06/05 02:16:11;;;;;;;;;23.00;19.50;;;;;18.25;100.00;100385.84;4997328;28;45518;-70
2022/06/05 02:18:37;;;;;;;;;19.25;17.50;;;;;18.30;100.00;100392.66;4995477;27;45537;-70
2022/06/05 02:21:05;;;;;;;;;16.75;15.25;;;;;18.28;100.00;100379.44;4993595;28;45352;-69
2022/06/05 02:23:35;;;;;;;;;24.50;24.50;;;;;18.29;100.00;100383.78;4995166;28;45206;-70
2022/06/05 02:26:04;;;;;;;;;26.25;24.75;;;;;18.24;100.00;100380.63;4995366;28;45309;-70
2022/06/05 02:28:29;;;;;;;;;22.75;21.25;;;;;18.22;100.00;100372.78;4995143;28;45424;-69
2022/06/05 02:31:03;;;;;;;;;25.00;22.25;;;;;18.23;100.00;100374.47;4996861;28;45194;-69
2022/06/05 02:34:00;;;;;;;;;24.25;24.25;;;;;18.22;100.00;100374.56;4997614;28;45192;-72
2022/06/05 02:36:31;;;;;;;;;26.00;24.75;;;;;18.20;100.00;100379.16;4995227;28;45508;-70
2022/06/05 02:39:09;;;;;;;;;32.00;29.00;;;;;18.18;100.00;100376.66;4993366;28;46618;-70
2022/06/05 02:41:48;;;;;;;;;26.00;25.00;;;;;18.11;100.00;100364.75;4995020;28;45463;-70
2022/06/05 02:44:29;;;;;;;;;31.75;27.50;;;;;18.10;100.00;100363.91;4993374;28;45423;-70
2022/06/05 02:47:11;;;;;;;;;26.75;26.00;;;;;18.11;100.00;100364.75;4996449;28;45318;-70
2022/06/05 02:49:43;;;;;;;;;29.00;26.00;;;;;18.10;100.00;100361.25;4994548;28;46412;-69
2022/06/05 02:52:09;;;;;;;;;4.25;4.00;;;;;18.07;100.00;100353.47;4997042;28;45457;-70
2022/06/05 02:54:41;;;;;;;;;27.25;25.00;;;;;18.06;100.00;100353.63;4995026;27;45423;-70
2022/06/05 02:57:07;;;;;;;;;28.00;26.50;;;;;18.03;100.00;100354.69;4994602;28;45290;-71
2022/06/05 02:59:33;;;;;;;;;26.50;25.00;;;;;17.99;100.00;100347.88;4994552;28;46169;-70
2022/06/05 03:04:42;;;;;;;;;30.25;24.75;;;;;18.02;100.00;100362.75;4994891;28;45319;-71
2022/06/05 03:07:08;;;;;;;;;29.75;25.50;;;;;17.98;100.00;100354.16;4994992;28;45613;-71
2022/06/05 03:09:33;;;;;;;;;24.50;24.00;;;;;17.96;100.00;100350.75;4994934;28;46111;-72
2022/06/05 03:11:59;;;;;;;;;22.75;21.50;;;;;17.98;100.00;100353.28;4995250;27;45342;-70
2022/06/05 03:14:24;;;;;;;;;17.50;17.50;;;;;17.94;100.00;100356.19;4995838;28;45310;-71
2022/06/05 03:16:50;;;;;;;;;22.25;19.00;;;;;17.87;100.00;100349.63;4994848;28;45555;-72
2022/06/05 03:19:15;;;;;;;;;18.00;18.00;;;;;17.88;100.00;100364.63;4995077;28;45918;-72
2022/06/05 03:21:40;;;;;;;;;21.50;20.25;;;;;17.86;100.00;100366.53;4995123;28;45322;-71
2022/06/05 03:24:07;;;;;;;;;20.75;19.50;;;;;17.83;100.00;100365.94;4995485;28;45515;-70
2022/06/05 03:26:33;;;;;;;;;24.50;19.50;;;;;17.82;100.00;100375.72;4995462;28;45275;-74
2022/06/05 03:28:59;;;;;;;;;17.75;17.75;;;;;17.80;100.00;100367.00;4993624;28;47075;-70
2022/06/05 03:31:25;;;;;;;;;18.75;18.75;;;;;17.72;100.00;100354.28;4995466;28;45306;-71
2022/06/05 03:33:50;;;;;;;;;20.25;19.25;;;;;17.73;100.00;100361.31;4994779;28;45289;-69
2022/06/05 03:36:17;;;;;;;;;25.00;23.75;;;;;17.69;100.00;100370.47;4995091;27;45564;-69
2022/06/05 03:38:43;;;;;;;;;19.75;19.75;;;;;17.64;100.00;100367.31;4994104;28;45392;-69
2022/06/05 03:41:09;;;;;;;;;21.50;20.50;;;;;17.61;100.00;100376.34;4994549;28;45506;-70
2022/06/05 03:43:37;;;;;;;;;21.00;20.00;;;;;17.58;100.00;100376.56;4994072;28;45420;-71
2022/06/05 03:46:06;;;;;;;;;17.00;16.75;;;;;17.54;100.00;100380.41;4993949;28;45617;-70
2022/06/05 03:48:31;;;;;;;;;18.75;18.75;;;;;17.48;100.00;100368.41;4993752;27;45277;-72
2022/06/05 03:50:57;;;;;;;;;15.50;15.50;;;;;17.52;100.00;100392.97;4994396;28;45141;-69
2022/06/05 03:53:22;;;;;;;;;17.25;17.25;;;;;17.50;100.00;100390.44;4994392;28;45210;-71
2022/06/05 03:55:48;;;;;;;;;18.25;16.75;;;;;17.54;100.00;100407.00;4994609;27;45314;-70
2022/06/05 03:58:13;;;;;;;;;36.25;31.75;;;;;17.55;100.00;100407.88;4994585;28;46516;-70
2022/06/05 04:00:41;;;;;;;;;19.75;19.00;;;;;17.57;100.00;100414.75;4996944;28;45280;-73
2022/06/05 04:03:06;;;;;;;;;18.50;18.00;;;;;17.56;100.00;100413.06;4993257;28;45372;-71
2022/06/05 04:05:32;;;;;;;;;22.00;19.00;;;;;17.57;100.00;100412.09;4993159;27;45796;-70
2022/06/05 04:07:57;;;;;;;;;20.50;19.25;;;;;17.61;100.00;100418.06;4994400;28;46059;-71
2022/06/05 04:10:23;;;;;;;;;21.50;21.50;;;;;17.63;100.00;100419.63;4994070;27;45405;-71
2022/06/05 04:12:49;;;;;;;;;19.75;19.75;;;;;17.65;100.00;100420.38;4994302;28;45323;-72
2022/06/05 04:15:15;;;;;;;;;20.50;20.50;;;;;17.68;100.00;100421.97;4993570;28;45206;-71
2022/06/05 04:17:41;;;;;;;;;19.75;19.75;;;;;17.70;100.00;100427.16;4993983;28;46103;-70
2022/06/05 04:20:07;;;;;;;;;24.25;21.25;;;;;17.74;100.00;100426.84;4994863;28;45357;-71
2022/06/05 04:22:35;;;;;;;;;9.50;9.50;;;;;17.81;100.00;100438.75;4993712;28;45236;-70
2022/06/05 04:25:02;;;;;;;;;19.50;17.75;;;;;17.87;100.00;100444.56;4993875;27;45353;-69
2022/06/05 04:27:27;;;;;;;;;8.50;7.75;;;;;17.92;100.00;100443.25;4992401;27;47010;-71
2022/06/05 04:29:53;;;;;;;;;18.50;17.50;;;;;17.97;100.00;100450.91;4994056;28;45425;-72
2022/06/05 04:32:18;;;;;;;;;18.75;16.25;;;;;18.04;100.00;100448.69;4993800;27;45493;-73
2022/06/05 04:34:44;;;;;;;;;21.25;18.50;;;;;18.07;100.00;100454.63;4992374;28;45461;-72
2022/06/05 04:37:09;;;;;;;;;15.50;13.25;;;;;18.09;100.00;100449.19;4993764;28;46255;-69
2022/06/05 04:39:35;;;;;;;;;15.00;15.00;;;;;18.09;100.00;100449.19;4993741;28;45302;-70
2022/06/05 04:42:00;;;;;;;;;13.50;12.75;;;;;18.09;100.00;100451.88;4997587;28;45338;-71
2022/06/05 04:44:26;;;;;;;;;16.75;16.50;;;;;18.13;100.00;100463.97;4997987;28;45260;-69
2022/06/05 04:46:53;;;;;;;;;16.75;14.75;;;;;18.16;100.00;100479.72;4997959;28;46764;-70
2022/06/05 04:49:18;;;;;;;;;16.25;16.25;;;;;18.17;100.00;100485.88;4993435;27;45392;-70
2022/06/05 04:51:44;;;;;;;;;13.75;13.75;;;;;18.17;100.00;100483.22;4997716;28;45409;-70
2022/06/05 04:54:13;;;;;;;;;17.00;16.25;;;;;18.28;100.00;100487.75;4995630;28;45322;-72
2022/06/05 04:56:38;;;;;;;;;17.25;15.00;;;;;18.37;100.00;100492.41;4993768;28;46307;-69
2022/06/05 04:59:04;;;;;;;;;18.50;16.00;;;;;18.45;100.00;100494.47;4996570;28;45346;-73
2022/06/05 05:01:32;;;;;;;;;13.75;12.75;;;;;18.51;100.00;100497.53;4994355;28;45422;-71
2022/06/05 05:04:07;;;;;;;;;15.25;15.00;;;;;18.58;100.00;100497.94;4994030;28;45187;-69
2022/06/05 05:06:33;;;;;;;;;12.50;12.50;;;;;18.63;100.00;100493.13;4995001;28;45495;-72
2022/06/05 05:08:59;;;;;;;;;14.25;13.00;;;;;18.70;100.00;100496.13;4993212;28;45418;-71
2022/06/05 05:11:26;;;;;;;;;13.50;13.50;;;;;18.76;100.00;100495.69;4993320;28;45381;-72
2022/06/05 05:13:53;;;;;;;;;16.25;14.75;;;;;18.85;100.00;100486.13;4993503;27;45466;-70
2022/06/05 05:16:19;;;;;;;;;17.50;15.75;;;;;18.86;100.00;100476.31;4993093;28;46797;-71
2022/06/05 05:18:44;;;;;;;;;17.25;15.75;;;;;18.97;100.00;100495.88;4991215;28;45287;-71
2022/06/05 05:21:13;;;;;;;;;16.50;15.25;;;;;19.03;100.00;100489.22;4991984;28;45281;-71
2022/06/05 05:23:39;;;;;;;;;17.00;16.25;;;;;19.09;100.00;100493.22;4993368;28;45348;-71
2022/06/05 05:26:19;;;;;;;;;17.25;17.25;;;;;19.12;100.00;100491.19;4993027;28;46303;-74
2022/06/05 05:28:45;;;;;;;;;16.00;16.00;;;;;19.20;100.00;100492.41;4997968;28;45310;-70
2022/06/05 05:31:17;;;;;;;;;13.50;13.50;;;;;19.27;100.00;100481.13;4996890;28;45340;-72
2022/06/05 05:33:43;;;;;;;;;19.25;17.75;;;;;19.33;100.00;100481.59;4995455;28;45315;-72
2022/06/05 05:36:09;;;;;;;;;19.50;19.50;;;;;19.47;100.00;100485.88;4995793;28;46118;-70
2022/06/05 05:38:36;;;;;;;;;18.00;18.00;;;;;19.60;100.00;100485.72;4996250;28;45263;-73
2022/06/05 05:43:45;;;;;;;;;20.75;16.50;;;;;19.75;100.00;100486.31;4996625;28;45403;-72
2022/06/05 05:46:13;;;;;;;;;15.00;15.00;;;;;19.91;99.89;100497.47;4996924;27;45692;-73
2022/06/05 05:48:39;;;;;;;;;14.00;14.00;;;;;20.00;100.00;100502.06;4998163;28;45268;-71
2022/06/05 05:51:14;;;;;;;;;21.75;18.00;;;;;20.12;99.69;100491.34;4996267;27;45384;-72
2022/06/05 05:53:40;;;;;;;;;20.00;16.75;;;;;20.26;99.53;100495.56;4996464;28;45269;-71
2022/06/05 05:56:10;;;;;;;;;17.75;17.75;;;;;20.40;98.79;100494.44;4996197;28;46603;-72
2022/06/05 05:58:36;;;;;;;;;19.25;18.00;;;;;20.50;98.72;100494.50;4996068;27;45361;-71
2022/06/05 06:01:07;;;;;;;;;19.50;19.50;;;;;20.56;98.71;100489.50;4995680;27;45366;-70
2022/06/05 06:03:32;;;;;;;;;17.50;16.50;;;;;20.67;97.93;100490.41;4995960;28;45429;-69
2022/06/05 06:06:00;;;;;;;;;19.00;19.00;;;;;20.75;97.42;100485.25;4995680;28;46138;-72
2022/06/05 06:08:26;;;;;;;;;26.75;26.00;;;;;20.80;97.13;100483.06;4995735;28;45292;-71
2022/06/05 06:10:51;;;;;;;;;17.25;16.75;;;;;20.92;96.87;100480.31;4995855;28;45230;-71
2022/06/05 06:13:17;;;;;;;;;17.75;17.00;;;;;20.98;95.59;100483.34;4997612;28;45353;-72
2022/06/05 06:15:43;;;;;;;;;20.75;19.25;;;;;21.00;95.55;100475.16;4995559;27;45203;-73
2022/06/05 06:18:08;;;;;;;;;18.50;17.25;;;;;21.04;94.74;100481.13;4994904;28;45676;-71
2022/06/05 06:20:34;;;;;;;;;18.00;16.00;;;;;21.08;95.39;100482.53;4995782;28;45321;-71
2022/06/05 06:22:59;;;;;;;;;15.75;15.75;;;;;21.13;94.72;100483.81;4995874;28;45251;-70
2022/06/05 06:25:24;;;;;;;;;14.25;14.25;;;;;21.21;94.86;100476.97;4995473;28;45399;-69
2022/06/05 06:27:50;;;;;;;;;19.25;17.75;;;;;21.28;95.25;100468.28;4995422;27;45379;-69
2022/06/05 06:30:15;;;;;;;;;16.75;13.75;;;;;21.35;94.18;100463.25;4995193;28;45283;-70
2022/06/05 06:32:40;;;;;;;;;20.00;19.25;;;;;21.36;93.65;100469.44;4995340;28;45278;-70
2022/06/05 06:35:06;;;;;;;;;16.00;16.00;;;;;21.46;94.17;100472.97;4995453;28;45357;-70
2022/06/05 06:37:31;;;;;;;;;16.25;16.25;;;;;21.52;93.92;100474.28;4995252;28;45416;-71
2022/06/05 06:39:57;;;;;;;;;18.75;17.50;;;;;21.60;93.39;100469.94;4992461;27;45410;-70
2022/06/05 06:42:22;;;;;;;;;16.25;14.00;;;;;21.63;93.04;100466.19;4994980;28;45256;-70
2022/06/05 06:44:47;;;;;;;;;16.25;16.25;;;;;21.70;92.97;100470.00;4993635;28;46014;-70
2022/06/05 06:47:13;;;;;;;;;28.75;27.25;;;;;21.79;92.81;100457.63;4994791;27;45353;-70
2022/06/05 06:49:38;;;;;;;;;16.75;16.75;;;;;21.92;92.76;100454.69;4996930;28;45274;-69
2022/06/05 06:52:04;;;;;;;;;17.00;15.50;;;;;22.01;91.52;100456.50;4994597;28;45189;-70
2022/06/05 06:54:29;;;;;;;;;16.25;14.50;;;;;22.10;91.37;100451.31;4994325;28;47325;-70
2022/06/05 06:56:55;;;;;;;;;16.25;15.75;;;;;22.18;91.15;100449.63;4995751;28;45322;-71
2022/06/05 06:59:20;;;;;;;;;19.50;17.25;;;;;22.29;90.54;100445.13;4997551;28;45228;-71
2022/06/05 07:01:46;;;;;;;;;16.00;14.50;;;;;22.37;90.64;100441.75;4995724;28;45238;-69
2022/06/05 07:04:12;;;;;;;;;13.00;13.00;;;;;22.47;90.60;100440.75;4995957;28;46476;-69
2022/06/05 07:06:37;;;;;;;;;14.75;12.25;;;;;22.58;90.24;100444.25;4995561;28;45391;-71
2022/06/05 07:09:03;;;;;;;;;14.50;14.50;;;;;22.68;90.17;100439.72;4996854;28;45157;-71
2022/06/05 07:11:29;;;;;;;;;10.75;10.75;;;;;22.76;89.67;100450.56;4994889;28;45235;-69
2022/06/05 07:13:56;;;;;;;;;12.00;9.25;;;;;22.82;88.26;100446.47;4994082;28;46259;-69
2022/06/05 07:16:21;;;;;;;;;16.50;16.50;;;;;22.82;87.12;100446.47;4994144;27;45279;-70
2022/06/05 07:18:48;;;;;;;;;15.00;14.00;;;;;22.89;88.65;100449.44;4994204;28;45401;-69
2022/06/05 07:21:17;;;;;;;;;11.50;11.50;;;;;22.96;88.84;100444.31;4994554;28;45449;-71
2022/06/05 07:23:43;;;;;;;;;11.50;11.50;;;;;23.00;88.20;100435.84;4994410;28;46200;-70
2022/06/05 07:26:10;;;;;;;;;13.25;12.00;;;;;23.09;86.94;100426.06;4993804;27;45308;-71
2022/06/05 07:28:37;;;;;;;;;11.00;11.00;;;;;23.26;87.50;100437.03;4994205;27;45350;-71
2022/06/05 07:31:04;;;;;;;;;13.75;12.50;;;;;23.39;85.84;100432.19;4993925;28;45339;-71
2022/06/05 07:33:30;;;;;;;;;12.25;11.75;;;;;23.47;85.64;100431.44;4994126;27;45314;-71
2022/06/05 07:36:02;;;;;;;;;10.50;10.50;;;;;23.59;85.35;100432.91;4993889;28;45510;-70
2022/06/05 07:38:28;;;;;;;;;12.75;12.00;;;;;23.64;84.61;100432.47;4994001;28;45460;-70
2022/06/05 07:40:53;;;;;;;;;11.25;9.75;;;;;23.62;84.09;100437.16;4996122;28;45519;-71
2022/06/05 07:43:21;;;;;;;;;8.50;8.50;;;;;23.62;83.83;100442.53;4994247;27;45377;-71
2022/06/05 07:45:47;;;;;;;;;7.25;7.25;;;;;23.56;82.63;100443.13;4992880;27;45345;-71
2022/06/05 07:48:13;;;;;;;;;6.25;6.25;;;;;23.49;82.84;100426.75;4994302;28;45384;-71
2022/06/05 07:56:07;;;;;;;;;9.75;9.75;;;;;23.34;82.33;100429.13;4992943;28;45309;-70
2022/06/05 07:58:33;;;;;;;;;8.00;8.00;;;;;23.35;81.76;100444.22;4992768;27;45362;-72
2022/06/05 08:00:58;;;;;;;;;7.75;7.75;;;;;23.33;82.01;100441.66;4993115;28;45442;-69
2022/06/05 08:03:23;;;;;;;;;13.25;10.25;;;;;23.39;81.77;100445.63;4993739;27;46212;-72
2022/06/05 08:05:49;;;;;;;;;7.75;6.25;;;;;23.51;80.67;100453.47;4993233;28;45370;-71
2022/06/05 08:08:14;;;;;;;;;7.50;7.50;;;;;23.63;80.77;100446.88;4992744;27;45336;-69
2022/06/05 08:10:39;;;;;;;;;8.25;8.25;;;;;23.81;79.78;100446.91;4993102;27;45512;-71
2022/06/05 08:13:05;;;;;;;;;7.00;7.00;;;;;24.01;79.10;100446.81;4992780;27;45377;-69
2022/06/05 08:15:30;;;;;;;;;5.00;5.00;;;;;24.17;78.35;100455.03;4992257;28;45471;-70
2022/06/05 08:17:55;;;;;;;;;6.00;6.00;;;;;24.25;76.69;100458.78;4992499;27;45263;-71
2022/06/05 08:20:21;;;;;;;;;7.00;7.00;;;;;24.31;77.28;100464.38;4992619;27;45625;-71
2022/06/05 08:22:47;;;;;;;;;8.00;7.75;;;;;24.29;76.92;100462.84;4992462;28;45401;-72
2022/06/05 08:25:13;;;;;;;;;7.25;6.00;;;;;24.24;75.77;100463.31;4993842;27;45356;-69
2022/06/05 08:27:39;;;;;;;;;6.75;6.75;;;;;24.12;76.06;100460.03;4991269;27;45332;-70
2022/06/05 08:30:05;;;;;;;;;8.00;6.50;;;;;24.04;76.58;100465.31;4993317;27;45511;-70
2022/06/05 08:32:31;;;;;;;;;6.75;6.75;;;;;23.95;77.13;100477.78;4993633;27;46194;-72
2022/06/05 08:34:57;;;;;;;;;5.25;5.25;;;;;23.83;75.55;100468.25;4993303;28;45388;-71
2022/06/05 08:43:37;;;;;;;;;9.50;8.50;;;;;23.18;77.48;100472.63;4992940;28;45267;-70
2022/06/05 08:46:15;;;;;;;;;7.75;6.75;;;;;22.95;78.08;100475.69;4991324;28;45356;-72
2022/06/05 08:48:51;;;;;;;;;7.75;7.75;;;;;22.77;78.20;100479.06;4991236;28;45290;-71
2022/06/05 08:52:15;;;;;;;;;12.00;9.50;;;;;22.65;79.17;100485.59;4993873;28;45407;-72
2022/06/05 08:54:52;;;;;;;;;9.50;9.50;;;;;22.68;79.72;100493.34;4919272;28;45978;-72
2022/06/05 08:57:22;;;;;;;;;10.00;8.75;;;;;22.70;79.26;100491.38;4994355;28;45264;-70
2022/06/05 09:00:10;;;;;;;;;11.25;10.00;;;;;22.71;79.80;100478.81;4992908;28;45364;-71
2022/06/05 09:02:35;;;;;;;;;8.00;8.00;;;;;22.71;78.92;100492.22;4985488;28;45430;-69
2022/06/05 09:05:06;;;;;;;;;8.00;8.00;;;;;22.65;78.08;100490.13;4995058;28;46253;-71
2022/06/05 09:07:38;;;;;;;;;8.00;8.00;;;;;22.55;78.51;100487.44;4995489;28;45311;-70
2022/06/05 09:10:13;;;;;;;;;6.25;6.25;;;;;22.46;78.61;100487.31;4994999;28;45430;-70
2022/06/05 09:12:50;;;;;;;;;6.25;6.00;;;;;22.49;79.01;100485.31;4995528;28;45353;-70
2022/06/05 09:15:26;;;;;;;;;8.00;8.00;;;;;22.49;79.64;100471.94;4994526;28;46312;-70
2022/06/05 09:17:58;;;;;;;;;5.25;5.25;;;;;22.61;79.72;100484.19;4994344;28;45550;-71
2022/06/05 09:20:45;;;;;;;;;10.75;7.75;;;;;22.65;79.05;100487.44;4994466;28;45291;-73
2022/06/05 09:23:54;;;;;;;;;9.00;9.00;;;;;22.64;78.78;100507.19;4994631;28;45393;-72
2022/06/05 09:26:26;;;;;;;;;6.25;6.25;;;;;22.57;78.59;100510.44;4934481;28;46199;-71
2022/06/05 09:29:17;;;;;;;;;6.50;6.00;;;;;22.46;78.25;100518.63;4933581;28;45500;-70
2022/06/05 09:31:55;;;;;;;;;12.75;8.00;;;;;22.28;79.04;100513.94;4975301;28;45422;-73
2022/06/05 09:34:28;;;;;;;;;9.75;8.75;;;;;22.15;79.25;100526.72;4994636;28;45354;-71
2022/06/05 09:37:18;;;;;;;;;9.75;8.75;;;;;22.06;79.26;100540.97;4993650;28;45441;-73
2022/06/05 09:39:54;;;;;;;;;9.50;8.00;;;;;21.93;79.89;100535.88;4994773;28;45292;-73
2022/06/05 09:42:36;;;;;;;;;9.50;8.50;;;;;21.87;80.37;100547.97;4994614;28;45313;-68
2022/06/05 09:45:04;;;;;;;;;7.75;7.75;;;;;21.80;80.12;100547.66;4994073;28;45454;-70
2022/06/05 09:47:54;;;;;;;;;11.75;10.00;;;;;21.71;80.65;100541.28;4994277;28;46606;-70
2022/06/05 09:50:26;;;;;;;;;13.75;11.00;;;;;21.65;80.84;100547.19;4993168;27;45387;-71
2022/06/05 09:52:52;;;;;;;;;7.00;7.00;;;;;21.60;80.12;100547.53;4994681;28;45233;-70
2022/06/05 09:55:41;;;;;;;;;10.25;10.25;;;;;21.66;81.48;100534.63;4994187;28;45273;-68
2022/06/05 09:58:52;;;;;;;;;11.00;9.25;;;;;21.76;80.45;100532.00;4985819;27;46489;-70
2022/06/05 10:01:28;;;;;;;;;7.00;7.00;;;;;21.86;80.16;100535.56;4958987;27;45283;-71
2022/06/05 10:03:56;;;;;;;;;8.50;8.00;;;;;21.83;79.70;100525.13;4993751;28;45256;-71
2022/06/05 10:06:35;;;;;;;;;8.00;8.00;;;;;21.84;79.75;100535.72;4994301;28;45595;-69
2022/06/05 10:09:06;;;;;;;;;10.00;10.00;;;;;21.84;78.69;100549.09;4995389;28;47052;-72
2022/06/05 10:11:50;;;;;;;;;12.00;11.75;;;;;21.73;78.82;100530.44;4993965;28;45450;-71
2022/06/05 10:14:28;;;;;;;;;9.25;9.25;;;;;21.89;78.98;100554.03;4992910;27;45445;-70
2022/06/05 10:17:18;;;;;;;;;12.00;11.00;;;;;21.93;78.97;100551.94;4993095;27;45492;-71
2022/06/05 10:19:52;;;;;;;;;8.75;8.75;;;;;22.02;79.62;100559.16;4993781;28;46257;-70
2022/06/05 10:22:30;;;;;;;;;12.75;12.00;;;;;22.03;78.04;100560.84;4993451;27;45237;-69
2022/06/05 10:25:10;;;;;;;;;10.50;10.50;;;;;21.90;78.10;100550.38;4992369;28;45424;-71
2022/06/05 10:27:36;;;;;;;;;10.75;10.50;;;;;22.02;78.77;100567.19;4993974;28;45271;-71
2022/06/05 10:30:03;;;;;;;;;13.75;13.75;;;;;22.16;78.41;100569.47;4991452;28;45378;-71
2022/06/05 10:33:01;;;;;;;;;13.25;13.00;;;;;22.31;77.04;100567.25;4993560;28;45262;-69
2022/06/05 10:35:48;;;;;;;;;13.50;12.25;;;;;22.52;75.06;100569.00;4992385;28;45425;-70
2022/06/05 10:38:35;;;;;;;;;14.75;14.75;;;;;22.56;75.29;100564.19;4994600;27;45588;-70
2022/06/05 10:41:18;;;;;;;;;16.50;16.50;;;;;22.54;75.53;100555.44;4993712;28;45329;-73
2022/06/05 10:43:48;;;;;;;;;13.00;11.75;;;;;22.70;74.60;100566.44;4995195;28;45473;-70
2022/06/05 10:46:26;;;;;;;;;19.25;16.25;;;;;22.70;74.82;100568.28;4993772;28;45309;-71
2022/06/05 10:49:36;;;;;;;;;17.75;16.50;;;;;22.65;73.35;100563.34;4994064;28;45340;-69
2022/06/05 10:52:19;;;;;;;;;18.00;18.00;;;;;22.58;74.32;100579.16;4956218;27;45329;-71
2022/06/05 10:55:34;;;;;;;;;18.75;17.50;;;;;22.56;74.86;100569.53;4993182;28;45401;-72
2022/06/05 10:58:18;;;;;;;;;19.50;17.75;;;;;22.58;74.41;100573.78;4959278;28;45322;-72
2022/06/05 11:01:05;;;;;;;;;19.00;17.25;;;;;22.60;73.38;100577.19;4994345;28;45440;-71
2022/06/05 11:04:09;;;;;;;;;16.00;15.50;;;;;22.51;73.16;100588.75;4992140;28;47009;-71
2022/06/05 11:06:44;;;;;;;;;14.25;14.00;;;;;22.31;72.48;100586.00;4938651;27;45314;-73
2022/06/05 11:09:09;;;;;;;;;18.25;17.00;;;;;22.20;74.37;100595.97;4993125;28;45407;-71
2022/06/05 11:14:55;;;;;;;;;17.75;17.75;;;;;22.28;73.31;100588.09;4995024;28;45724;-73
2022/06/05 11:17:30;;;;;;;;;18.00;16.25;;;;;22.43;72.33;100593.91;4992446;28;45280;-71
2022/06/05 11:20:16;;;;;;;;;23.25;20.75;;;;;22.50;73.04;100594.22;4993451;28;45328;-71
2022/06/05 11:23:06;;;;;;;;;19.00;18.25;;;;;22.41;72.76;100598.56;4993364;28;45277;-70
2022/06/05 11:25:49;;;;;;;;;14.75;14.75;;;;;22.29;72.63;100593.34;4992451;28;46884;-72
2022/06/05 11:28:47;;;;;;;;;16.75;15.25;;;;;22.24;72.46;100598.22;4992963;28;45173;-69
2022/06/05 11:31:44;;;;;;;;;21.50;19.00;;;;;22.23;72.11;100593.03;4992561;27;45135;-72
2022/06/05 11:34:34;;;;;;;;;16.50;15.25;;;;;22.17;73.22;100594.41;4992844;28;45391;-72
2022/06/05 11:37:34;;;;;;;;;17.00;16.50;;;;;22.22;72.44;100599.38;4992873;28;46595;-70
2022/06/05 11:40:32;;;;;;;;;19.50;19.50;;;;;22.12;73.20;100604.69;4992607;28;45424;-73
2022/06/05 11:43:26;;;;;;;;;15.00;15.00;;;;;22.07;73.31;100609.59;4991796;28;45444;-70
2022/06/05 11:45:58;;;;;;;;;16.50;15.50;;;;;21.94;72.62;100610.69;4994357;28;45336;-72
2022/06/05 11:48:32;;;;;;;;;20.25;19.25;;;;;21.76;73.00;100613.19;4995177;28;45320;-72
2022/06/05 11:51:00;;;;;;;;;18.50;16.75;;;;;21.59;73.13;100625.31;4994390;28;45227;-71
2022/06/05 11:53:44;;;;;;;;;22.50;22.50;;;;;21.45;74.33;100630.03;4993623;28;45287;-73